createdAt,value
2023-05-01T00:02:34.177Z,6.92
2023-05-01T00:05:26.363Z,6.88
2023-05-01T00:08:18.410Z,6.84
2023-05-01T00:11:12.447Z,6.80
2023-05-01T00:14:04.714Z,6.77
2023-05-01T00:16:56.825Z,6.73
2023-05-01T00:19:52.370Z,6.69
2023-05-01T00:22:44.451Z,6.67
2023-05-01T00:25:36.417Z,6.62
2023-05-01T00:28:28.359Z,6.57
2023-05-01T00:31:20.360Z,6.53
2023-05-01T00:34:12.610Z,6.49
2023-05-01T00:37:04.644Z,6.45
2023-05-01T00:39:56.916Z,6.41
2023-05-01T00:42:49.315Z,6.36
2023-05-01T00:45:44.284Z,6.27
2023-05-01T00:48:36.708Z,6.21
2023-05-01T00:51:30.206Z,6.17
2023-05-01T00:54:23.095Z,6.15
2023-05-01T00:57:05.277Z,6.16
2023-05-01T00:59:57.473Z,6.13
2023-05-01T01:02:50.054Z,6.10
2023-05-01T01:05:47.675Z,6.07
2023-05-01T01:08:45.222Z,6.04
2023-05-01T01:11:44.036Z,6.00
2023-05-01T01:14:43.017Z,5.91
2023-05-01T01:17:46.776Z,5.87
2023-05-01T01:20:46.383Z,5.82
2023-05-01T01:24:04.235Z,5.82
2023-05-01T01:27:31.820Z,5.79
2023-05-01T01:31:15.289Z,5.73
2023-05-01T01:34:14.399Z,5.73
2023-05-01T01:37:15.526Z,5.69
2023-05-01T01:40:12.642Z,5.64
2023-05-01T01:43:08.100Z,5.59
2023-05-01T01:46:04.262Z,5.58
2023-05-01T01:48:59.298Z,5.54
2023-05-01T01:51:53.016Z,5.52
2023-05-01T01:54:54.030Z,5.49
2023-05-01T01:57:48.155Z,5.46
2023-05-01T02:00:41.941Z,5.43
2023-05-01T02:03:34.637Z,5.39
2023-05-01T02:06:28.800Z,5.34
2023-05-01T02:09:23.065Z,5.33
2023-05-01T02:12:17.796Z,5.33
2023-05-01T02:15:12.776Z,5.31
2023-05-01T02:18:06.491Z,5.28
2023-05-01T02:21:00.803Z,5.26
2023-05-01T02:23:51.283Z,5.24
2023-05-01T02:26:47.879Z,5.19
2023-05-01T02:29:39.820Z,5.16
2023-05-01T02:32:32.069Z,5.15
2023-05-01T02:35:24.162Z,5.14
2023-05-01T02:38:16.989Z,5.10
2023-05-01T02:41:09.894Z,5.06
2023-05-01T02:44:06.594Z,5.05
2023-05-01T02:46:59.843Z,5.02
2023-05-01T02:49:52.630Z,4.93
2023-05-01T02:52:45.836Z,4.88
2023-05-01T02:55:38.056Z,4.86
2023-05-01T02:58:33.854Z,4.89
2023-05-01T03:01:26.266Z,4.86
2023-05-01T03:04:18.397Z,4.87
2023-05-01T03:07:10.478Z,4.84
2023-05-01T03:09:44.951Z,4.79
2023-05-01T03:12:37.071Z,4.78
2023-05-01T03:15:29.054Z,4.79
2023-05-01T03:18:21.078Z,4.81
2023-05-01T03:21:13.673Z,4.80
2023-05-01T03:24:06.178Z,4.78
2023-05-01T03:26:58.197Z,4.76
2023-05-01T03:29:50.458Z,4.75
2023-05-01T03:32:42.533Z,4.71
2023-05-01T03:35:34.654Z,4.69
2023-05-01T03:38:27.197Z,4.73
2023-05-01T03:41:19.258Z,4.76
2023-05-01T03:44:11.255Z,4.73
2023-05-01T03:47:03.324Z,4.73
2023-05-01T03:49:55.835Z,4.75
2023-05-01T03:52:48.064Z,4.73
2023-05-01T03:55:40.662Z,4.74
2023-05-01T03:58:32.656Z,4.84
2023-05-01T04:01:24.679Z,4.91
2023-05-01T04:04:16.869Z,4.96
2023-05-01T04:07:09.351Z,5.07
2023-05-01T04:10:01.331Z,5.18
2023-05-01T04:12:53.520Z,5.31
2023-05-01T04:15:48.058Z,5.44
2023-05-01T04:18:40.024Z,5.52
2023-05-01T04:21:32.051Z,5.61
2023-05-01T04:24:24.075Z,5.70
2023-05-01T04:27:16.127Z,5.75
2023-05-01T04:30:09.647Z,5.81
2023-05-01T04:33:01.885Z,5.86
2023-05-01T04:35:54.009Z,5.88
2023-05-01T04:38:46.008Z,5.90
2023-05-01T04:41:38.113Z,5.97
2023-05-01T04:44:30.627Z,6.06
2023-05-01T04:47:22.556Z,6.16
2023-05-01T04:50:14.776Z,6.25
2023-05-01T04:53:06.811Z,6.34
2023-05-01T04:55:58.789Z,6.43
2023-05-01T04:58:50.896Z,6.52
2023-05-01T05:01:42.938Z,6.64
2023-05-01T05:04:34.985Z,6.84
2023-05-01T05:07:27.201Z,7.14
2023-05-01T05:10:19.282Z,7.33
2023-05-01T05:13:11.330Z,7.39
2023-05-01T05:16:03.467Z,7.33
2023-05-01T05:18:58.487Z,7.26
2023-05-01T05:21:50.475Z,7.41
2023-05-01T05:24:42.519Z,7.89
2023-05-01T05:27:37.940Z,8.43
2023-05-01T05:30:30.204Z,9.03
2023-05-01T05:33:22.767Z,9.75
2023-05-01T05:36:14.760Z,10.59
2023-05-01T05:39:06.792Z,11.51
2023-05-01T05:42:00.755Z,12.28
2023-05-01T05:44:53.036Z,13.05
2023-05-01T05:47:45.082Z,13.83
2023-05-01T05:50:37.233Z,14.70
2023-05-01T05:53:29.338Z,15.50
2023-05-01T05:56:21.327Z,15.74
2023-05-01T05:59:14.467Z,16.42
2023-05-01T06:02:08.590Z,17.03
2023-05-01T06:05:00.629Z,17.41
2023-05-01T06:07:52.638Z,18.17
2023-05-01T06:10:46.364Z,18.81
2023-05-01T06:13:37.707Z,19.24
2023-05-01T06:16:29.931Z,19.46
2023-05-01T06:19:22.233Z,19.79
2023-05-01T06:22:14.234Z,19.65
2023-05-01T06:25:07.814Z,19.53
2023-05-01T06:28:00.019Z,20.21
2023-05-01T06:30:51.988Z,20.50
2023-05-01T06:33:43.923Z,20.91
2023-05-01T06:36:36.048Z,21.15
2023-05-01T06:39:28.029Z,21.47
2023-05-01T06:42:21.465Z,22.06
2023-05-01T06:45:13.688Z,22.50
2023-05-01T06:48:06.301Z,22.33
2023-05-01T06:50:58.553Z,21.95
2023-05-01T06:53:50.529Z,21.15
2023-05-01T06:56:43.144Z,20.48
2023-05-01T06:59:35.126Z,20.05
2023-05-01T07:02:27.188Z,19.32
2023-05-01T07:05:19.602Z,18.69
2023-05-01T07:08:11.672Z,18.05
2023-05-01T07:11:03.818Z,17.58
2023-05-01T07:13:56.186Z,17.07
2023-05-01T07:16:48.238Z,16.54
2023-05-01T07:19:40.270Z,16.36
2023-05-01T07:22:32.287Z,16.20
2023-05-01T07:25:24.996Z,16.02
2023-05-01T07:28:18.104Z,15.72
2023-05-01T07:31:12.110Z,15.49
2023-05-01T07:34:04.143Z,15.36
2023-05-01T07:36:56.395Z,15.28
2023-05-01T07:39:48.394Z,15.26
2023-05-01T07:42:40.458Z,15.07
2023-05-01T07:45:32.515Z,14.92
2023-05-01T07:48:24.777Z,14.86
2023-05-01T07:51:18.398Z,14.69
2023-05-01T07:54:08.646Z,14.55
2023-05-01T07:57:01.767Z,14.48
2023-05-01T07:59:57.680Z,14.53
2023-05-01T08:02:49.942Z,14.47
2023-05-01T08:05:43.408Z,14.47
2023-05-01T08:08:35.397Z,14.49
2023-05-01T08:11:29.395Z,14.48
2023-05-01T08:14:17.603Z,14.50
2023-05-01T08:17:09.730Z,14.51
2023-05-01T08:20:04.391Z,14.58
2023-05-01T08:22:56.418Z,14.66
2023-05-01T08:25:51.076Z,14.92
2023-05-01T08:28:43.267Z,15.07
2023-05-01T08:31:37.741Z,15.17
2023-05-01T08:34:29.852Z,15.29
2023-05-01T08:37:21.881Z,15.33
2023-05-01T08:40:15.835Z,15.54
2023-05-01T08:43:07.800Z,15.76
2023-05-01T08:46:01.771Z,15.72
2023-05-01T08:48:57.780Z,15.74
2023-05-01T08:51:52.957Z,15.73
2023-05-01T08:54:47.613Z,15.94
2023-05-01T08:57:40.476Z,16.27
2023-05-01T09:00:34.333Z,16.45
2023-05-01T09:03:28.187Z,16.78
2023-05-01T09:06:21.318Z,16.96
2023-05-01T09:09:13.322Z,17.03
2023-05-01T09:12:13.822Z,16.97
2023-05-01T09:15:07.183Z,17.21
2023-05-01T09:18:03.244Z,17.24
2023-05-01T09:20:56.253Z,17.11
2023-05-01T09:23:51.337Z,17.03
2023-05-01T09:26:43.662Z,17.22
2023-05-01T09:29:35.352Z,17.32
2023-05-01T09:32:28.934Z,17.23
2023-05-01T09:35:21.049Z,17.26
2023-05-01T09:38:17.866Z,17.31
2023-05-01T09:41:10.879Z,17.42
2023-05-01T09:44:03.136Z,17.36
2023-05-01T09:47:04.483Z,17.30
2023-05-01T09:49:59.646Z,17.33
2023-05-01T09:52:53.619Z,17.43
2023-05-01T09:56:02.967Z,17.45
2023-05-01T09:58:56.084Z,17.34
2023-05-01T10:01:50.088Z,17.34
2023-05-01T10:04:43.207Z,17.36
2023-05-01T10:07:35.791Z,17.41
2023-05-01T10:10:27.972Z,17.49
2023-05-01T10:13:20.297Z,17.43
2023-05-01T10:16:31.166Z,17.39
2023-05-01T10:19:23.437Z,17.37
2023-05-01T10:22:16.238Z,17.46
2023-05-01T10:25:11.401Z,17.52
2023-05-01T10:28:06.463Z,17.58
2023-05-01T10:30:49.793Z,17.63
2023-05-01T10:33:43.567Z,17.66
2023-05-01T10:36:42.020Z,17.80
2023-05-01T10:39:35.383Z,17.87
2023-05-01T10:42:28.888Z,18.01
2023-05-01T10:45:35.242Z,18.19
2023-05-01T10:48:58.224Z,18.20
2023-05-01T10:52:03.897Z,18.26
2023-05-01T10:55:16.653Z,18.31
2023-05-01T10:58:08.708Z,18.39
2023-05-01T11:01:33.565Z,18.50
2023-05-01T11:04:51.127Z,18.68
2023-05-01T11:07:43.585Z,18.82
2023-05-01T11:10:35.850Z,18.83
2023-05-01T11:14:02.693Z,18.77
2023-05-01T11:16:55.145Z,18.61
2023-05-01T11:19:50.275Z,18.56
2023-05-01T11:22:47.321Z,18.57
2023-05-01T11:25:39.375Z,18.65
2023-05-01T11:28:35.346Z,18.79
2023-05-01T11:31:29.113Z,18.90
2023-05-01T11:34:21.267Z,18.82
2023-05-01T11:37:13.279Z,18.85
2023-05-01T11:40:06.199Z,18.83
2023-05-01T11:43:06.908Z,18.89
2023-05-01T11:46:03.982Z,18.87
2023-05-01T11:48:57.234Z,18.95
2023-05-01T11:51:59.033Z,19.04
2023-05-01T11:54:51.349Z,19.04
2023-05-01T11:57:51.681Z,19.06
2023-05-01T12:00:44.882Z,19.05
2023-05-01T12:03:45.653Z,19.00
2023-05-01T12:06:44.565Z,19.01
2023-05-01T12:09:36.724Z,19.03
2023-05-01T12:12:28.778Z,19.11
2023-05-01T12:15:21.112Z,19.19
2023-05-01T12:18:15.364Z,19.22
2023-05-01T12:21:20.112Z,19.21
2023-05-01T12:24:14.998Z,19.23
2023-05-01T12:27:08.953Z,19.26
2023-05-01T12:30:00.937Z,19.34
2023-05-01T12:32:53.216Z,19.35
2023-05-01T12:35:35.123Z,19.35
2023-05-01T12:38:27.088Z,19.32
2023-05-01T12:41:01.901Z,19.26
2023-05-01T12:43:53.891Z,19.24
2023-05-01T12:46:47.351Z,19.18
2023-05-01T12:49:40.613Z,19.16
2023-05-01T12:52:33.375Z,19.25
2023-05-01T12:55:26.110Z,19.39
2023-05-01T12:58:18.796Z,19.41
2023-05-01T13:01:10.817Z,19.29
2023-05-01T13:04:03.076Z,19.15
2023-05-01T13:06:56.486Z,19.20
2023-05-01T13:09:58.548Z,19.22
2023-05-01T13:12:52.034Z,19.19
2023-05-01T13:15:44.919Z,19.17
2023-05-01T13:18:57.340Z,19.21
2023-05-01T13:21:52.221Z,19.26
2023-05-01T13:24:45.001Z,19.27
2023-05-01T13:27:37.878Z,19.23
2023-05-01T13:30:35.801Z,19.24
2023-05-01T13:33:29.217Z,19.32
2023-05-01T13:36:26.677Z,19.28
2023-05-01T13:39:21.993Z,19.22
2023-05-01T13:42:21.667Z,19.27
2023-05-01T13:45:19.689Z,19.32
2023-05-01T13:48:12.589Z,19.30
2023-05-01T13:51:07.195Z,19.35
2023-05-01T13:53:59.206Z,19.38
2023-05-01T13:56:51.191Z,19.37
2023-05-01T13:59:44.544Z,19.28
2023-05-01T14:02:38.324Z,19.21
2023-05-01T14:05:30.411Z,19.22
2023-05-01T14:08:28.551Z,19.27
2023-05-01T14:11:21.102Z,19.34
2023-05-01T14:14:13.345Z,19.39
2023-05-01T14:17:05.359Z,19.41
2023-05-01T14:19:57.417Z,19.35
2023-05-01T14:22:51.774Z,19.34
2023-05-01T14:25:45.047Z,19.38
2023-05-01T14:28:57.059Z,19.42
2023-05-01T14:31:49.072Z,19.44
2023-05-01T14:34:43.700Z,19.44
2023-05-01T14:37:35.822Z,19.45
2023-05-01T14:40:29.065Z,19.46
2023-05-01T14:43:22.636Z,19.47
2023-05-01T14:46:17.063Z,19.52
2023-05-01T14:49:09.157Z,19.54
2023-05-01T14:52:01.192Z,19.56
2023-05-01T14:54:53.484Z,19.52
2023-05-01T14:57:48.506Z,19.49
2023-05-01T15:00:40.497Z,19.49
2023-05-01T15:03:32.871Z,19.49
2023-05-01T15:06:25.692Z,19.48
2023-05-01T15:09:17.684Z,19.50
2023-05-01T15:12:10.198Z,19.50
2023-05-01T15:15:02.391Z,19.50
2023-05-01T15:17:54.388Z,19.51
2023-05-01T15:20:26.950Z,19.50
2023-05-01T15:23:19.003Z,19.47
2023-05-01T15:26:10.946Z,19.45
2023-05-01T15:29:03.458Z,19.43
2023-05-01T15:32:08.205Z,19.42
2023-05-01T15:35:03.642Z,19.41
2023-05-01T15:37:56.519Z,19.38
2023-05-01T15:40:49.863Z,19.38
2023-05-01T15:43:24.747Z,19.38
2023-05-01T15:46:18.245Z,19.37
2023-05-01T15:49:11.551Z,19.35
2023-05-01T15:52:03.810Z,19.36
2023-05-01T15:54:56.272Z,19.33
2023-05-01T15:57:30.886Z,19.28
2023-05-01T16:00:23.055Z,19.24
2023-05-01T16:03:16.153Z,19.17
2023-05-01T16:06:09.486Z,19.15
2023-05-01T16:09:01.999Z,19.12
2023-05-01T16:11:54.006Z,19.06
2023-05-01T16:14:46.423Z,19.00
2023-05-01T16:17:43.641Z,18.96
2023-05-01T16:20:42.308Z,18.91
2023-05-01T16:23:34.414Z,18.86
2023-05-01T16:26:28.756Z,18.80
2023-05-01T16:29:21.527Z,18.77
2023-05-01T16:32:14.063Z,18.72
2023-05-01T16:35:07.174Z,18.64
2023-05-01T16:38:00.428Z,18.57
2023-05-01T16:40:52.480Z,18.51
2023-05-01T16:43:44.487Z,18.44
2023-05-01T16:46:36.551Z,18.40
2023-05-01T16:49:29.398Z,18.35
2023-05-01T16:52:21.485Z,18.32
2023-05-01T16:55:13.834Z,18.27
2023-05-01T16:58:06.836Z,18.22
2023-05-01T17:00:59.505Z,18.12
2023-05-01T17:03:40.566Z,18.04
2023-05-01T17:06:32.681Z,17.94
2023-05-01T17:09:24.760Z,17.89
2023-05-01T17:12:17.587Z,17.88
2023-05-01T17:15:11.491Z,17.86
2023-05-01T17:18:03.697Z,17.78
2023-05-01T17:20:38.518Z,17.75
2023-05-01T17:23:30.852Z,17.72
2023-05-01T17:26:22.889Z,17.64
2023-05-01T17:29:15.207Z,17.61
2023-05-01T17:32:07.811Z,17.57
2023-05-01T17:35:00.155Z,17.46
2023-05-01T17:37:52.425Z,17.39
2023-05-01T17:40:44.643Z,17.31
2023-05-01T17:43:36.600Z,17.25
2023-05-01T17:46:28.720Z,17.21
2023-05-01T17:49:20.736Z,17.14
2023-05-01T17:52:12.753Z,17.06
2023-05-01T17:55:05.566Z,16.98
2023-05-01T17:57:57.492Z,16.92
2023-05-01T18:00:38.460Z,16.85
2023-05-01T18:03:32.444Z,16.78
2023-05-01T18:06:23.278Z,16.72
2023-05-01T18:09:15.298Z,16.67
2023-05-01T18:12:07.761Z,16.64
2023-05-01T18:14:59.948Z,16.58
2023-05-01T18:17:52.011Z,16.55
2023-05-01T18:20:44.075Z,16.49
2023-05-01T18:23:36.955Z,16.40
2023-05-01T18:26:29.404Z,16.34
2023-05-01T18:29:22.766Z,16.29
2023-05-01T18:32:14.918Z,16.26
2023-05-01T18:35:08.400Z,16.23
2023-05-01T18:38:00.503Z,16.19
2023-05-01T18:40:32.387Z,16.15
2023-05-01T18:43:24.362Z,16.12
2023-05-01T18:46:16.452Z,16.09
2023-05-01T18:49:08.624Z,16.04
2023-05-01T18:52:00.566Z,16.02
2023-05-01T18:54:52.625Z,16.00
2023-05-01T18:57:46.545Z,15.96
2023-05-01T19:00:38.623Z,15.93
2023-05-01T19:03:30.651Z,15.89
2023-05-01T19:06:06.007Z,15.87
2023-05-01T19:08:58.328Z,15.82
2023-05-01T19:11:51.323Z,15.79
2023-05-01T19:14:43.312Z,15.76
2023-05-01T19:17:17.963Z,15.71
2023-05-01T19:20:11.769Z,15.68
2023-05-01T19:23:03.745Z,15.65
2023-05-01T19:25:55.731Z,15.62
2023-05-01T19:28:47.828Z,15.57
2023-05-01T19:31:39.833Z,15.52
2023-05-01T19:34:31.933Z,15.46
2023-05-01T19:37:23.958Z,15.42
2023-05-01T19:40:16.940Z,15.37
2023-05-01T19:43:08.911Z,15.33
2023-05-01T19:46:00.954Z,15.28
2023-05-01T19:48:53.183Z,15.24
2023-05-01T19:51:45.832Z,15.19
2023-05-01T19:54:38.027Z,15.12
2023-05-01T19:57:29.996Z,15.06
2023-05-01T20:00:22.507Z,15.01
2023-05-01T20:03:15.637Z,14.94
2023-05-01T20:06:07.889Z,14.86
2023-05-01T20:08:59.907Z,14.80
2023-05-01T20:11:52.267Z,14.76
2023-05-01T20:14:44.267Z,14.72
2023-05-01T20:17:36.333Z,14.69
2023-05-01T20:20:28.314Z,14.66
2023-05-01T20:23:23.282Z,14.61
2023-05-01T20:26:15.261Z,14.56
2023-05-01T20:29:44.699Z,14.55
2023-05-01T20:32:36.775Z,14.43
2023-05-01T20:35:28.791Z,14.36
2023-05-01T20:38:21.595Z,14.26
2023-05-01T20:41:13.547Z,14.22
2023-05-01T20:44:06.884Z,14.20
2023-05-01T20:46:58.921Z,14.16
2023-05-01T20:49:50.876Z,14.12
2023-05-01T20:52:42.894Z,14.09
2023-05-01T20:55:34.859Z,14.04
2023-05-01T20:58:26.906Z,13.96
2023-05-01T21:01:18.920Z,13.92
2023-05-01T21:04:11.151Z,13.86
2023-05-01T21:07:03.194Z,13.82
2023-05-01T21:09:55.139Z,13.76
2023-05-01T21:12:47.135Z,13.73
2023-05-01T21:15:43.200Z,13.72
2023-05-01T21:18:36.280Z,13.69
2023-05-01T21:21:28.974Z,13.67
2023-05-01T21:24:24.642Z,13.64
2023-05-01T21:27:16.622Z,13.61
2023-05-01T21:30:14.893Z,13.51
2023-05-01T21:33:09.258Z,13.40
2023-05-01T21:35:59.670Z,13.36
2023-05-01T21:38:51.618Z,13.26
2023-05-01T21:41:44.458Z,13.20
2023-05-01T21:44:36.478Z,13.14
2023-05-01T21:47:19.831Z,13.11
2023-05-01T21:50:15.893Z,13.06
2023-05-01T21:53:08.408Z,13.02
2023-05-01T21:56:00.653Z,12.98
2023-05-01T21:58:52.736Z,12.94
2023-05-01T22:01:45.377Z,12.91
2023-05-01T22:04:38.057Z,12.90
2023-05-01T22:07:30.102Z,12.88
2023-05-01T22:10:22.095Z,12.84
2023-05-01T22:13:14.058Z,12.81
2023-05-01T22:16:06.509Z,12.77
2023-05-01T22:18:58.495Z,12.73
2023-05-01T22:21:50.748Z,12.67
2023-05-01T22:24:42.707Z,12.64
2023-05-01T22:27:34.854Z,12.59
2023-05-01T22:30:26.979Z,12.51
2023-05-01T22:33:18.968Z,12.47
2023-05-01T22:36:11.185Z,12.43
2023-05-01T22:39:03.848Z,12.41
2023-05-01T22:41:55.892Z,12.41
2023-05-01T22:44:48.206Z,12.39
2023-05-01T22:47:40.216Z,12.31
2023-05-01T22:50:32.174Z,12.27
2023-05-01T22:53:24.152Z,12.25
2023-05-01T22:56:16.277Z,12.22
2023-05-01T22:59:08.258Z,12.19
2023-05-01T23:02:02.408Z,12.13
2023-05-01T23:04:54.552Z,12.07
2023-05-01T23:07:46.683Z,12.04
2023-05-01T23:10:43.044Z,12.03
2023-05-01T23:13:34.994Z,12.03
2023-05-01T23:16:27.218Z,12.02
2023-05-01T23:19:25.196Z,11.99
2023-05-01T23:22:17.921Z,11.94
2023-05-01T23:25:15.959Z,11.84
2023-05-01T23:28:08.378Z,11.78
2023-05-01T23:31:02.503Z,11.75
2023-05-01T23:33:54.930Z,11.73
2023-05-01T23:36:48.452Z,11.69
2023-05-01T23:39:40.437Z,11.65
2023-05-01T23:42:32.689Z,11.61
2023-05-01T23:45:25.429Z,11.59
2023-05-01T23:48:17.573Z,11.58
2023-05-01T23:51:09.646Z,11.56
2023-05-01T23:54:04.196Z,11.53
2023-05-01T23:56:56.333Z,11.50
2023-05-01T23:59:48.344Z,11.48
